Himki, Russia
Current Conditions -  °F | °C
As of 7:00 AM on Wednesday 28 Jan 2015 (Local Time) from UUEE Reporting Station
Light Snow Light Snow  
Wind Chill: 13°   Ceiling: 2300
Heat Index: 21°   Visibility: 5mi
Dew Point: 19°   Wind: 7mph
Humidity: 93%   Direction: 200°SSW
Pressure: 29.91"   Gusts: NA
Location:  55.89°N, 37.44°E
Report Text: UUEE 280400Z 20003MPS 8000 -SN OVC023 M06/M07 Q1013 7545024525450245 NOSIG
Loading
Personal Weather Stations






























Interactive Weather Map New forecast layout! Learn more

10-Day Weather Forecast

Advertisements
Track Severe Weather on mobile